createdAt,value
2023-01-13T00:02:08.984Z,8.35
2023-01-13T00:06:19.024Z,8.29
2023-01-13T00:10:20.701Z,8.33
2023-01-13T00:14:22.781Z,8.38
2023-01-13T00:18:24.495Z,8.32
2023-01-13T00:22:26.288Z,8.30
2023-01-13T00:26:30.710Z,8.33
2023-01-13T00:30:32.638Z,8.33
2023-01-13T00:34:34.408Z,8.28
2023-01-13T00:38:37.898Z,8.38
2023-01-13T00:43:08.925Z,8.36
2023-01-13T00:47:10.728Z,8.44
2023-01-13T00:51:15.536Z,8.43
2023-01-13T00:55:17.176Z,8.44
2023-01-13T00:59:18.944Z,8.45
2023-01-13T01:03:20.698Z,8.33
2023-01-13T01:07:22.528Z,8.44
2023-01-13T01:11:27.220Z,8.40
2023-01-13T01:15:28.749Z,8.50
2023-01-13T01:19:30.296Z,8.50
2023-01-13T01:23:33.577Z,8.63
2023-01-13T01:27:35.209Z,8.51
2023-01-13T01:31:36.738Z,8.56
2023-01-13T01:35:41.598Z,8.58
2023-01-13T01:39:43.164Z,8.66
2023-01-13T01:44:04.473Z,8.70
2023-01-13T01:48:07.569Z,8.66
2023-01-13T01:52:13.239Z,8.80
2023-01-13T01:56:16.252Z,8.77
2023-01-13T02:00:17.853Z,8.79
2023-01-13T02:04:34.611Z,8.79
2023-01-13T02:08:39.033Z,8.90
2023-01-13T02:12:43.012Z,8.84
2023-01-13T02:16:57.371Z,8.80
2023-01-13T02:21:14.816Z,8.91
2023-01-13T02:25:27.945Z,8.81
2023-01-13T02:30:01.820Z,8.74
2023-01-13T02:34:25.627Z,8.64
2023-01-13T02:38:35.049Z,8.73
2023-01-13T02:43:15.855Z,8.82
2023-01-13T02:47:26.561Z,8.72
2023-01-13T02:51:30.832Z,8.85
2023-01-13T02:55:40.247Z,8.93
2023-01-13T02:59:43.148Z,8.80
2023-01-13T03:03:44.618Z,8.84
2023-01-13T03:08:15.586Z,8.72
2023-01-13T03:13:03.929Z,8.65
2023-01-13T03:17:17.126Z,8.58
2023-01-13T03:21:49.424Z,8.63
2023-01-13T03:25:56.245Z,8.70
2023-01-13T03:30:02.930Z,8.63
2023-01-13T03:34:09.869Z,8.71
2023-01-13T03:38:23.988Z,8.73
2023-01-13T03:42:27.682Z,8.79
2023-01-13T03:47:00.383Z,8.75
2023-01-13T03:51:15.624Z,8.70
2023-01-13T03:55:22.658Z,8.68
2023-01-13T03:59:29.350Z,8.69
2023-01-13T04:04:03.122Z,8.66
2023-01-13T04:08:27.404Z,8.72
2023-01-13T04:12:58.109Z,8.76
2023-01-13T04:16:59.533Z,8.73
2023-01-13T04:21:02.034Z,8.69
2023-01-13T04:25:03.682Z,8.82
2023-01-13T04:29:05.228Z,8.79
2023-01-13T04:33:07.151Z,8.64
2023-01-13T04:37:08.649Z,8.59
2023-01-13T04:41:10.092Z,8.70
2023-01-13T04:45:12.280Z,8.68
2023-01-13T04:49:13.949Z,8.63
2023-01-13T04:53:15.387Z,8.72
2023-01-13T04:57:16.785Z,8.75
2023-01-13T05:01:18.399Z,8.77
2023-01-13T05:05:19.967Z,8.83
2023-01-13T05:09:21.419Z,8.94
2023-01-13T05:13:43.114Z,8.92
2023-01-13T05:17:44.917Z,8.89
2023-01-13T05:22:04.586Z,9.01
2023-01-13T05:26:06.154Z,8.88
2023-01-13T05:30:08.699Z,9.06
2023-01-13T05:34:10.145Z,8.97
2023-01-13T05:38:12.598Z,8.93
2023-01-13T05:42:32.341Z,9.02
2023-01-13T05:46:33.932Z,9.07
2023-01-13T05:50:35.425Z,9.00
2023-01-13T05:54:36.865Z,9.06
2023-01-13T05:58:38.634Z,9.06
2023-01-13T06:02:40.211Z,9.05
2023-01-13T06:06:43.371Z,9.07
2023-01-13T06:10:45.031Z,9.01
2023-01-13T06:14:46.495Z,9.04
2023-01-13T06:18:47.979Z,8.99
2023-01-13T06:22:52.471Z,9.09
2023-01-13T06:26:54.444Z,9.07
2023-01-13T06:30:59.999Z,8.95
2023-01-13T06:35:06.278Z,8.93
2023-01-13T06:39:09.138Z,8.89
2023-01-13T06:43:17.555Z,8.88
2023-01-13T06:47:22.257Z,8.74
2023-01-13T06:51:23.802Z,8.77
2023-01-13T06:55:28.411Z,8.86
2023-01-13T06:59:30.110Z,8.96
2023-01-13T07:03:31.624Z,8.99
2023-01-13T07:07:33.571Z,9.12
2023-01-13T07:11:34.955Z,9.00
2023-01-13T07:15:36.438Z,8.98
2023-01-13T07:19:37.910Z,9.02
2023-01-13T07:23:41.107Z,8.96
2023-01-13T07:27:42.590Z,8.90
2023-01-13T07:31:44.266Z,8.85
2023-01-13T07:35:46.365Z,8.76
2023-01-13T07:39:47.860Z,8.79
2023-01-13T07:43:49.964Z,8.69
2023-01-13T07:47:53.148Z,8.70
2023-01-13T07:51:54.570Z,8.64
2023-01-13T07:55:57.701Z,8.60
2023-01-13T07:59:59.195Z,8.64
2023-01-13T08:04:00.677Z,8.59
2023-01-13T08:08:02.359Z,8.36
2023-01-13T08:12:22.713Z,8.46
2023-01-13T08:16:24.244Z,8.37
2023-01-13T08:20:26.078Z,8.32
2023-01-13T08:24:27.913Z,8.38
2023-01-13T08:28:29.846Z,8.46
2023-01-13T08:32:31.368Z,8.41
2023-01-13T08:36:32.829Z,8.54
2023-01-13T08:40:34.621Z,8.50
2023-01-13T08:44:36.078Z,8.45
2023-01-13T08:48:37.929Z,8.64
2023-01-13T08:52:39.513Z,8.47
2023-01-13T08:56:42.548Z,8.50
2023-01-13T09:00:44.227Z,8.59
2023-01-13T09:04:46.389Z,8.67
2023-01-13T09:08:48.189Z,8.61
2023-01-13T09:13:07.993Z,8.67
2023-01-13T09:17:10.018Z,8.34
2023-01-13T09:21:12.329Z,8.48
2023-01-13T09:25:13.830Z,8.93
2023-01-13T09:29:16.105Z,9.12
2023-01-13T09:33:37.509Z,8.82
2023-01-13T09:37:41.009Z,8.92
2023-01-13T09:42:08.297Z,8.91
2023-01-13T09:46:42.827Z,8.86
2023-01-13T09:50:50.359Z,9.00
2023-01-13T09:55:05.154Z,8.67
2023-01-13T09:59:11.131Z,9.03
2023-01-13T10:03:26.410Z,8.95
2023-01-13T10:07:31.838Z,8.27
2023-01-13T10:11:58.089Z,8.27
2023-01-13T10:16:11.505Z,8.17
2023-01-13T10:20:50.709Z,8.41
2023-01-13T10:25:03.939Z,8.23
2023-01-13T10:29:22.197Z,7.95
2023-01-13T10:33:28.322Z,8.13
2023-01-13T10:37:29.793Z,8.00
2023-01-13T10:41:33.034Z,8.11
2023-01-13T10:45:34.512Z,8.11
2023-01-13T10:49:38.649Z,7.95
2023-01-13T10:54:00.068Z,8.21
2023-01-13T10:58:17.994Z,8.41
2023-01-13T11:02:27.081Z,8.17
2023-01-13T11:06:30.853Z,8.21
2023-01-13T11:10:33.325Z,8.51
2023-01-13T11:14:39.803Z,8.51
2023-01-13T11:19:02.169Z,8.95
2023-01-13T11:23:15.554Z,9.21
2023-01-13T11:27:35.870Z,9.63
2023-01-13T11:31:43.052Z,9.46
2023-01-13T11:36:09.049Z,9.46
2023-01-13T11:40:19.926Z,9.44
2023-01-13T11:44:38.431Z,9.42
2023-01-13T11:48:42.255Z,9.50
2023-01-13T11:53:09.621Z,9.26
2023-01-13T11:57:29.189Z,9.76
2023-01-13T12:01:58.323Z,9.13
2023-01-13T12:06:32.781Z,9.53
2023-01-13T12:10:58.684Z,10.10
2023-01-13T12:15:31.196Z,10.16
2023-01-13T12:19:32.670Z,10.38
2023-01-13T12:23:37.028Z,10.17
2023-01-13T12:27:47.833Z,9.53
2023-01-13T12:31:50.485Z,9.35
2023-01-13T12:36:20.890Z,9.54
2023-01-13T12:40:34.505Z,9.39
2023-01-13T12:44:36.032Z,9.64
2023-01-13T12:48:57.020Z,9.76
2023-01-13T12:53:27.074Z,9.62
2023-01-13T12:57:32.538Z,9.87
2023-01-13T13:01:35.945Z,9.52
2023-01-13T13:05:59.357Z,9.77
2023-01-13T13:10:15.933Z,9.89
2023-01-13T13:14:41.433Z,9.59
2023-01-13T13:18:43.009Z,9.74
2023-01-13T13:22:50.878Z,9.53
2023-01-13T13:26:52.529Z,9.47
2023-01-13T13:31:10.579Z,9.59
2023-01-13T13:35:21.116Z,8.85
2023-01-13T13:39:45.083Z,8.91
2023-01-13T13:44:04.953Z,8.79
2023-01-13T13:48:27.013Z,9.22
2023-01-13T13:52:54.171Z,9.10
2023-01-13T13:56:55.795Z,9.31
2023-01-13T14:00:58.392Z,9.20
2023-01-13T14:05:30.462Z,8.76
2023-01-13T14:09:45.414Z,8.80
2023-01-13T14:14:13.474Z,8.72
2023-01-13T14:18:20.618Z,8.71
2023-01-13T14:22:22.348Z,8.68
2023-01-13T14:26:26.877Z,8.65
2023-01-13T14:30:28.684Z,8.66
2023-01-13T14:34:33.174Z,8.77
2023-01-13T14:38:34.765Z,8.61
2023-01-13T14:42:36.338Z,8.80
2023-01-13T14:46:39.489Z,8.42
2023-01-13T14:50:42.595Z,8.39
2023-01-13T14:54:46.831Z,8.31
2023-01-13T14:58:49.749Z,8.28
2023-01-13T15:02:57.210Z,8.29
2023-01-13T15:07:00.045Z,8.25
2023-01-13T15:11:06.857Z,8.26
2023-01-13T15:15:39.287Z,8.23
2023-01-13T15:19:40.786Z,8.13
2023-01-13T15:23:42.954Z,8.09
2023-01-13T15:27:46.239Z,8.01
2023-01-13T15:31:47.681Z,7.88
2023-01-13T15:35:52.320Z,7.87
2023-01-13T15:39:53.779Z,7.86
2023-01-13T15:44:13.529Z,7.79
2023-01-13T15:48:15.172Z,7.85
2023-01-13T15:52:21.494Z,7.73
2023-01-13T15:56:26.545Z,7.79
2023-01-13T16:00:28.438Z,7.79
2023-01-13T16:04:29.935Z,7.85
2023-01-13T16:08:34.118Z,7.79
2023-01-13T16:12:37.592Z,7.85
2023-01-13T16:16:39.186Z,7.81
2023-01-13T16:20:40.801Z,7.77
2023-01-13T16:24:42.364Z,7.80
2023-01-13T16:28:43.901Z,7.77
2023-01-13T16:32:45.319Z,7.90
2023-01-13T16:36:46.791Z,7.50
2023-01-13T16:40:48.822Z,7.40
2023-01-13T16:44:50.774Z,7.35
2023-01-13T16:48:55.308Z,7.21
2023-01-13T16:52:56.811Z,7.35
2023-01-13T16:56:58.287Z,7.27
2023-01-13T17:00:59.856Z,7.20
2023-01-13T17:05:01.630Z,7.23
2023-01-13T17:09:06.039Z,7.30
2023-01-13T17:13:15.943Z,7.33
2023-01-13T17:17:28.437Z,7.43
2023-01-13T17:21:29.967Z,7.33
2023-01-13T17:25:31.437Z,7.14
2023-01-13T17:29:32.947Z,7.25
2023-01-13T17:33:37.092Z,7.26
2023-01-13T17:37:38.524Z,7.32
2023-01-13T17:41:39.988Z,7.26
2023-01-13T17:45:41.670Z,7.30
2023-01-13T17:49:43.147Z,7.49
2023-01-13T17:53:45.417Z,7.42
2023-01-13T17:57:46.883Z,7.28
2023-01-13T18:01:48.707Z,7.36
2023-01-13T18:05:50.263Z,7.32
2023-01-13T18:09:51.668Z,7.28
2023-01-13T18:13:55.170Z,7.28
2023-01-13T18:17:56.736Z,7.24
2023-01-13T18:22:16.396Z,7.21
2023-01-13T18:26:37.589Z,7.16
2023-01-13T18:30:39.061Z,7.09
2023-01-13T18:34:40.880Z,7.19
2023-01-13T18:38:42.284Z,7.07
2023-01-13T18:42:54.191Z,7.14
2023-01-13T18:46:55.850Z,7.10
2023-01-13T18:50:57.334Z,7.10
2023-01-13T18:54:58.763Z,7.19
2023-01-13T18:59:01.778Z,7.09
2023-01-13T19:07:08.625Z,7.14
2023-01-13T19:11:10.181Z,7.28
2023-01-13T19:15:11.836Z,7.19
2023-01-13T19:19:13.274Z,7.11
2023-01-13T19:23:14.715Z,7.13
2023-01-13T19:27:18.054Z,7.10
2023-01-13T19:31:20.576Z,7.06
2023-01-13T19:35:22.292Z,7.23
2023-01-13T19:39:24.499Z,7.20
2023-01-13T19:43:45.378Z,7.23
2023-01-13T19:47:46.945Z,7.17
2023-01-13T19:51:49.232Z,7.15
2023-01-13T19:55:50.834Z,7.11
2023-01-13T19:59:52.488Z,7.20
2023-01-13T20:03:55.487Z,7.16
2023-01-13T20:07:57.489Z,7.06
2023-01-13T20:12:03.598Z,7.24
2023-01-13T20:16:05.563Z,7.04
2023-01-13T20:20:08.470Z,7.02
2023-01-13T20:24:19.497Z,6.95
2023-01-13T20:28:21.022Z,7.16
2023-01-13T20:32:22.503Z,7.10
2023-01-13T20:36:31.516Z,7.10
2023-01-13T20:40:33.191Z,7.08
2023-01-13T20:44:35.154Z,7.03
2023-01-13T20:48:36.941Z,6.97
2023-01-13T20:52:38.725Z,6.78
2023-01-13T20:56:40.827Z,6.90
2023-01-13T21:00:42.378Z,6.84
2023-01-13T21:04:43.937Z,6.91
2023-01-13T21:08:47.253Z,6.90
2023-01-13T21:13:06.988Z,6.76
2023-01-13T21:17:28.787Z,6.59
2023-01-13T21:21:30.325Z,6.56
2023-01-13T21:25:34.531Z,6.68
2023-01-13T21:29:36.706Z,6.62
2023-01-13T21:33:38.312Z,6.59
2023-01-13T21:37:41.891Z,6.59
2023-01-13T21:42:01.748Z,6.64
2023-01-13T21:46:22.045Z,6.79
2023-01-13T21:50:24.396Z,6.65
2023-01-13T21:54:25.884Z,6.61
2023-01-13T21:58:27.400Z,6.44
2023-01-13T22:02:31.507Z,6.48
2023-01-13T22:06:33.232Z,6.53
2023-01-13T22:10:35.489Z,6.42
2023-01-13T22:14:36.956Z,6.54
2023-01-13T22:18:38.421Z,6.48
2023-01-13T22:22:39.920Z,6.53
2023-01-13T22:26:41.353Z,6.43
2023-01-13T22:30:42.813Z,6.40
2023-01-13T22:34:44.540Z,6.16
2023-01-13T22:38:46.190Z,6.19
2023-01-13T22:42:47.660Z,6.04
2023-01-13T22:46:49.271Z,6.04
2023-01-13T22:50:50.703Z,6.05
2023-01-13T22:54:52.195Z,6.03
2023-01-13T22:58:58.918Z,5.92
2023-01-13T23:03:00.375Z,6.00
2023-01-13T23:07:01.852Z,6.01
2023-01-13T23:11:15.016Z,6.01
2023-01-13T23:15:16.544Z,6.16
2023-01-13T23:19:18.102Z,6.03
2023-01-13T23:23:19.773Z,5.98
2023-01-13T23:27:21.273Z,5.94
2023-01-13T23:31:22.775Z,5.89
2023-01-13T23:35:24.332Z,5.99
2023-01-13T23:39:25.835Z,5.90
2023-01-13T23:43:27.359Z,5.94
2023-01-13T23:47:28.942Z,6.13
2023-01-13T23:51:30.733Z,6.21
2023-01-13T23:55:32.204Z,6.06
2023-01-13T23:59:33.670Z,5.92
